Time;durP1;ratioP1;P1;durP2;ratioP2;P2;SDS_P1;SDS_P2;PMS_P1;PMS_P2;Temp;Humidity;BMP_temperature;BMP_pressure;BME280_temperature;BME280_humidity;BME280_pressure;Samples;Min_cycle;Max_cycle;Signal;HPM_P1;HPM_P2
2021/12/18 00:01:40;;;;;;;7.93;3.13;;;;;;;0.75;79.37;101398.89;1462836;87;21497;-86
2021/12/18 00:04:08;;;;;;;8.53;2.37;;;;;;;0.80;81.28;101395.62;1467946;88;21576;-87
2021/12/18 00:06:35;;;;;;;5.37;2.47;;;;;;;1.10;81.62;101392.70;1472077;88;21657;-85
2021/12/18 00:09:04;;;;;;;5.87;2.10;;;;;;;1.67;78.43;101399.40;1469375;88;21639;-85
2021/12/18 00:11:31;;;;;;;6.50;2.40;;;;;;;1.91;77.66;101397.03;1471729;88;22824;-85
2021/12/18 00:13:59;;;;;;;6.17;2.50;;;;;;;2.10;76.45;101394.45;1478378;88;21696;-85
2021/12/18 00:16:27;;;;;;;5.27;3.00;;;;;;;2.19;75.79;101399.25;1451779;88;21752;-85
2021/12/18 00:18:56;;;;;;;6.23;2.57;;;;;;;2.28;75.81;101394.53;1469987;88;21564;-85
2021/12/18 00:21:24;;;;;;;8.80;3.03;;;;;;;2.30;75.46;101401.81;1481087;88;22500;-85
2021/12/18 00:23:52;;;;;;;4.83;2.57;;;;;;;2.34;75.60;101408.14;1478957;88;21644;-84
2021/12/18 00:26:20;;;;;;;6.13;2.40;;;;;;;2.48;75.42;101417.50;1479425;88;21621;-85
2021/12/18 00:28:47;;;;;;;5.43;3.03;;;;;;;2.48;75.42;101417.50;1477668;88;21840;-86
2021/12/18 00:31:15;;;;;;;6.63;2.60;;;;;;;2.54;75.41;101418.98;1467453;88;21745;-86
2021/12/18 00:33:42;;;;;;;12.00;2.93;;;;;;;2.61;75.60;101426.91;1478092;88;21806;-86
2021/12/18 00:36:09;;;;;;;4.97;2.50;;;;;;;2.61;75.60;101426.91;1483031;88;22777;-85
2021/12/18 00:38:38;;;;;;;10.27;3.00;;;;;;;2.69;75.69;101409.56;1475418;88;23861;-85
2021/12/18 00:43:37;;;;;;;6.67;2.83;;;;;;;2.73;76.43;101416.79;1471594;88;21990;-85
2021/12/18 00:46:04;;;;;;;8.75;3.72;;;;;;;2.73;77.28;101422.86;1479313;88;21901;-85
2021/12/18 00:48:31;;;;;;;6.27;2.77;;;;;;;2.68;78.51;101433.55;1475078;88;22335;-85
2021/12/18 00:50:59;;;;;;;8.33;3.10;;;;;;;2.68;78.51;101433.55;1465187;88;21786;-84
2021/12/18 00:53:26;;;;;;;6.10;2.90;;;;;;;2.66;80.13;101435.38;1446067;88;21831;-86
2021/12/18 00:55:53;;;;;;;11.07;4.23;;;;;;;2.66;80.13;101435.38;1473114;88;22676;-87
2021/12/18 00:58:20;;;;;;;5.37;2.93;;;;;;;2.66;81.26;101441.08;1479570;88;21844;-87
2021/12/18 01:00:51;;;;;;;8.67;3.43;;;;;;;2.63;81.04;101435.99;1479546;88;21708;-87
2021/12/18 01:03:19;;;;;;;8.80;3.20;;;;;;;2.63;81.04;101435.99;1474572;87;22782;-87
2021/12/18 01:05:47;;;;;;;10.83;4.60;;;;;;;2.64;81.18;101456.81;1477416;88;22122;-88
2021/12/18 01:08:15;;;;;;;9.60;4.30;;;;;;;2.64;81.87;101452.05;1488799;88;22018;-87
2021/12/18 01:13:34;;;;;;;10.93;4.13;;;;;;;2.51;83.79;101464.86;1469598;88;22739;-87
2021/12/18 01:16:08;;;;;;;6.97;2.80;;;;;;;2.51;83.79;101464.86;1466139;88;21810;-87
2021/12/18 01:24:02;;;;;;;9.33;3.73;;;;;;;2.42;85.42;101473.96;1449894;90;21813;-85
2021/12/18 01:26:29;;;;;;;10.23;4.00;;;;;;;2.33;85.92;101460.45;1445218;90;21794;-86
2021/12/18 01:28:56;;;;;;;4.90;2.80;;;;;;;2.19;85.78;101464.55;1435933;90;21867;-85
2021/12/18 01:31:23;;;;;;;7.40;3.97;;;;;;;2.11;86.11;101458.81;1444651;90;21819;-85
2021/12/18 01:33:51;;;;;;;10.83;3.50;;;;;;;2.11;86.11;101458.81;1433232;90;22784;-85
2021/12/18 01:36:18;;;;;;;10.80;4.40;;;;;;;2.12;85.75;101464.41;1434752;89;21804;-85
2021/12/18 01:38:45;;;;;;;10.13;3.63;;;;;;;2.08;85.58;101472.01;1438383;90;21621;-84
2021/12/18 01:41:14;;;;;;;8.57;3.60;;;;;;;2.07;85.16;101472.06;1445468;89;22702;-84
2021/12/18 01:44:31;;;;;;;6.33;3.77;;;;;;;1.88;86.74;101477.26;1427088;88;21707;-84
2021/12/18 01:54:18;;;;;;;8.90;3.33;;;;;;;1.70;87.38;101464.55;1426357;92;21577;-83
2021/12/18 01:56:45;;;;;;;11.80;4.57;;;;;;;1.66;87.49;101457.28;1414652;93;21629;-83
2021/12/18 01:59:13;;;;;;;9.07;3.63;;;;;;;1.61;87.81;101446.64;1406421;92;21827;-84
2021/12/18 02:01:40;;;;;;;9.20;4.40;;;;;;;1.59;87.59;101454.55;1402259;92;22645;-84
2021/12/18 02:04:07;;;;;;;9.70;4.13;;;;;;;1.57;87.41;101456.37;1408325;92;21686;-84
2021/12/18 02:06:34;;;;;;;6.13;3.27;;;;;;;1.57;87.33;101459.82;1423105;92;21854;-84
2021/12/18 02:09:02;;;;;;;10.87;4.77;;;;;;;1.53;87.43;101456.12;1400739;93;21707;-85
2021/12/18 02:11:34;;;;;;;7.77;3.60;;;;;;;1.57;87.11;101454.60;1421833;92;21700;-84
2021/12/18 02:14:23;;;;;;;9.50;3.53;;;;;;;1.52;86.77;101466.98;1402262;90;21663;-85
2021/12/18 02:22:02;;;;;;;4.00;2.50;;;;;;;1.50;84.95;101457.55;1390881;93;21678;-84
2021/12/18 02:24:32;;;;;;;17.17;4.43;;;;;;;1.46;84.37;101454.66;1392858;94;22573;-85
2021/12/18 02:27:00;;;;;;;2.67;2.07;;;;;;;1.46;83.93;101450.75;1395304;90;21872;-84
2021/12/18 02:29:30;;;;;;;6.27;3.27;;;;;;;1.50;82.88;101450.56;1451689;90;22908;-85
2021/12/18 02:31:56;;;;;;;2.47;1.83;;;;;;;1.53;82.55;101450.44;1461558;89;21649;-85
2021/12/18 02:34:28;;;;;;;1.87;1.10;;;;;;;1.56;82.29;101452.91;1443809;90;21770;-84
2021/12/18 02:36:59;;;;;;;4.27;2.10;;;;;;;1.58;81.52;101461.97;1438736;90;21646;-84
2021/12/18 02:42:08;;;;;;;4.37;1.80;;;;;;;1.57;81.17;101469.41;1409422;91;22323;-85
2021/12/18 02:44:35;;;;;;;8.87;1.97;;;;;;;1.61;81.02;101470.97;1423599;90;21901;-83
2021/12/18 02:47:03;;;;;;;6.97;3.47;;;;;;;1.63;80.96;101470.45;1452284;89;21614;-85
2021/12/18 02:49:31;;;;;;;3.93;1.87;;;;;;;1.65;80.55;101468.64;1443657;90;22517;-84
2021/12/18 02:51:58;;;;;;;10.07;2.20;;;;;;;1.68;80.30;101472.42;1460113;90;21683;-85
2021/12/18 02:54:26;;;;;;;5.30;2.10;;;;;;;1.69;80.05;101466.28;1435883;90;21720;-84
2021/12/18 02:56:53;;;;;;;3.07;1.67;;;;;;;1.69;79.87;101467.58;1452432;90;21677;-84
2021/12/18 02:59:22;;;;;;;2.33;1.57;;;;;;;1.70;79.62;101470.61;1437542;90;21699;-84
2021/12/18 03:01:49;;;;;;;3.43;1.60;;;;;;;1.72;78.90;101471.83;1443642;89;21625;-84
2021/12/18 03:04:29;;;;;;;4.87;1.87;;;;;;;1.73;78.40;101471.78;1425043;90;21819;-83
2021/12/18 03:06:55;;;;;;;7.90;2.43;;;;;;;1.78;78.07;101475.05;1438044;90;21820;-84
2021/12/18 03:18:56;;;;;;;6.40;1.60;;;;;;;1.80;77.59;101488.86;1444621;90;21725;-83
2021/12/18 03:25:30;;;;;;;7.03;2.70;;;;;;;1.88;76.84;101496.38;1471948;88;22684;-84
2021/12/18 03:27:59;;;;;;;5.27;2.33;;;;;;;1.89;76.91;101505.05;1448578;88;22696;-83
2021/12/18 03:30:27;;;;;;;5.53;2.27;;;;;;;1.91;76.84;101508.45;1475112;88;21538;-83
2021/12/18 03:32:55;;;;;;;3.73;1.83;;;;;;;1.88;77.15;101499.45;1475704;88;22112;-83
2021/12/18 03:35:22;;;;;;;8.20;2.57;;;;;;;1.82;77.05;101503.63;1464574;88;22619;-83
2021/12/18 03:37:50;;;;;;;5.83;2.33;;;;;;;1.82;76.88;101493.19;1478623;88;22527;-84
2021/12/18 03:40:21;;;;;;;5.53;2.00;;;;;;;1.86;76.77;101494.73;1471202;88;21701;-84
2021/12/18 03:42:50;;;;;;;6.20;2.00;;;;;;;1.83;76.84;101503.55;1458439;88;21574;-84
2021/12/18 03:45:19;;;;;;;8.87;2.73;;;;;;;1.81;76.98;101497.53;1461070;88;22512;-85
2021/12/18 03:47:48;;;;;;;8.10;2.47;;;;;;;1.80;76.85;101494.08;1474440;88;22674;-84
2021/12/18 03:50:15;;;;;;;2.67;1.80;;;;;;;1.78;76.84;101501.15;1466135;88;22407;-84
2021/12/18 03:52:43;;;;;;;5.17;1.63;;;;;;;1.77;76.86;101501.20;1480585;88;21632;-84
2021/12/18 03:55:10;;;;;;;5.47;1.90;;;;;;;1.73;76.49;101503.56;1449549;88;21612;-84
2021/12/18 03:57:37;;;;;;;4.60;1.70;;;;;;;1.75;76.06;101497.33;1457455;88;21660;-84
2021/12/18 04:00:09;;;;;;;6.03;2.67;;;;;;;1.74;75.97;101491.73;1468134;87;22568;-84
2021/12/18 04:02:36;;;;;;;5.17;1.57;;;;;;;1.72;75.30;101489.64;1464136;88;22578;-83
2021/12/18 04:05:04;;;;;;;4.63;1.97;;;;;;;1.72;74.66;101483.11;1446738;88;21599;-84
2021/12/18 04:07:31;;;;;;;4.83;1.80;;;;;;;1.75;75.02;101490.81;1464874;88;21673;-84
2021/12/18 04:09:58;;;;;;;4.73;1.33;;;;;;;1.76;74.33;101491.22;1455197;88;22549;-84
2021/12/18 04:12:25;;;;;;;3.43;1.67;;;;;;;1.77;74.13;101482.93;1450050;88;21620;-83
2021/12/18 04:14:52;;;;;;;5.20;2.00;;;;;;;1.77;74.13;101494.67;1456704;88;21507;-83
2021/12/18 04:17:19;;;;;;;7.70;1.70;;;;;;;1.73;74.13;101492.66;1456643;88;21836;-83
2021/12/18 04:19:46;;;;;;;3.23;1.60;;;;;;;1.72;73.75;101498.77;1437099;88;22523;-83
2021/12/18 04:22:13;;;;;;;3.60;1.30;;;;;;;1.69;73.81;101511.95;1433761;89;21576;-84
2021/12/18 04:24:41;;;;;;;5.40;2.30;;;;;;;1.67;74.04;101513.80;1397071;91;22480;-84
2021/12/18 04:27:08;;;;;;;3.13;1.70;;;;;;;1.67;73.64;101512.50;1438647;90;22610;-84
2021/12/18 04:29:35;;;;;;;3.40;1.27;;;;;;;1.69;73.67;101519.78;1460596;89;21538;-83
2021/12/18 04:32:03;;;;;;;8.67;2.27;;;;;;;1.69;73.57;101518.47;1442572;90;21609;-83
2021/12/18 04:34:31;;;;;;;3.40;1.93;;;;;;;1.67;73.96;101530.77;1445958;89;21618;-83
2021/12/18 04:36:58;;;;;;;5.67;2.17;;;;;;;1.68;74.19;101541.58;1438622;89;21796;-85
2021/12/18 04:39:25;;;;;;;8.93;2.70;;;;;;;1.65;74.44;101533.04;1441256;90;22567;-85
2021/12/18 04:41:57;;;;;;;5.03;1.80;;;;;;;1.67;74.71;101542.51;1442540;90;21634;-84
2021/12/18 04:44:21;;;;;;;7.37;2.30;;;;;;;1.66;74.87;101543.40;1444687;90;22591;-84
2021/12/18 04:46:48;;;;;;;2.93;2.13;;;;;;;1.67;74.97;101545.12;1457410;90;21494;-84
2021/12/18 04:49:16;;;;;;;5.80;1.70;;;;;;;1.70;74.95;101552.82;1443058;89;21608;-85
2021/12/18 04:51:44;;;;;;;6.13;1.73;;;;;;;1.72;74.96;101552.73;1441344;90;21658;-84
2021/12/18 04:54:11;;;;;;;4.03;2.37;;;;;;;1.76;75.18;101553.02;1442091;89;21660;-84
2021/12/18 04:56:38;;;;;;;3.33;1.43;;;;;;;1.76;75.48;101551.72;1447738;89;21647;-83
2021/12/18 04:59:06;;;;;;;7.40;3.40;;;;;;;1.70;75.92;101559.34;1451957;90;21835;-84
2021/12/18 05:01:38;;;;;;;3.80;2.30;;;;;;;1.72;75.98;101554.89;1439009;90;21951;-84
2021/12/18 05:04:10;;;;;;;2.23;1.53;;;;;;;1.79;75.61;101564.17;1434367;89;21795;-84
2021/12/18 05:06:41;;;;;;;4.43;2.20;;;;;;;1.80;75.78;101576.30;1445609;89;21663;-83
2021/12/18 05:09:08;;;;;;;4.90;2.00;;;;;;;1.79;75.99;101581.61;1437861;89;22607;-82
2021/12/18 05:11:39;;;;;;;3.80;2.23;;;;;;;1.80;75.91;101591.97;1443349;90;21397;-84
2021/12/18 05:14:07;;;;;;;4.40;1.90;;;;;;;1.77;76.12;101585.57;1432531;90;22542;-84
2021/12/18 05:16:35;;;;;;;6.47;2.03;;;;;;;1.75;76.24;101593.91;1420785;91;21649;-83
2021/12/18 05:19:04;;;;;;;5.53;2.10;;;;;;;1.74;76.34;101600.52;1438169;90;21526;-83
2021/12/18 05:21:31;;;;;;;6.10;2.13;;;;;;;1.72;76.40;101601.02;1455960;88;21641;-83
2021/12/18 05:23:58;;;;;;;7.10;2.23;;;;;;;1.65;76.54;101605.66;1419541;90;21653;-84
2021/12/18 05:26:26;;;;;;;6.57;2.77;;;;;;;1.66;76.46;101611.72;1437062;91;22568;-83
2021/12/18 05:28:53;;;;;;;5.47;2.43;;;;;;;1.59;76.45;101612.42;1463639;89;21619;-83
2021/12/18 05:31:20;;;;;;;10.07;2.57;;;;;;;1.61;76.63;101619.72;1455978;89;23447;-83
2021/12/18 05:33:52;;;;;;;7.40;1.47;;;;;;;1.57;76.42;101631.20;1472597;88;22548;-84
2021/12/18 05:39:09;;;;;;;5.67;2.43;;;;;;;1.58;76.35;101638.11;1461399;89;21634;-83
2021/12/18 05:41:38;;;;;;;2.63;1.70;;;;;;;1.58;76.20;101639.41;1470566;88;21822;-83
2021/12/18 05:44:06;;;;;;;4.20;1.83;;;;;;;1.61;76.25;101641.89;1446456;89;21771;-83
2021/12/18 05:46:34;;;;;;;6.80;2.60;;;;;;;1.61;76.17;101649.72;1472140;88;23911;-83
2021/12/18 05:49:03;;;;;;;5.50;1.70;;;;;;;1.61;75.98;101641.05;1441843;90;21672;-82
2021/12/18 05:51:32;;;;;;;7.83;2.33;;;;;;;1.58;76.11;101642.02;1463915;89;21574;-81
2021/12/18 05:54:00;;;;;;;5.70;1.73;;;;;;;1.58;75.89;101636.38;1466239;88;21655;-81
2021/12/18 05:56:27;;;;;;;4.57;2.20;;;;;;;1.57;75.65;101632.50;1432857;89;21632;-84
2021/12/18 05:58:55;;;;;;;4.13;1.67;;;;;;;1.55;76.16;101629.97;1467009;88;21837;-84
2021/12/18 06:01:23;;;;;;;3.23;2.13;;;;;;;1.57;75.77;101643.78;1435878;89;22466;-84
2021/12/18 06:03:51;;;;;;;12.57;1.93;;;;;;;1.56;76.12;101645.16;1433832;90;21728;-84
2021/12/18 06:06:21;;;;;;;1.87;1.23;;;;;;;1.57;76.06;101656.83;1479379;87;21573;-82
2021/12/18 06:08:52;;;;;;;5.03;2.07;;;;;;;1.62;76.13;101667.11;1475374;88;21654;-82
2021/12/18 06:11:21;;;;;;;7.83;3.63;;;;;;;1.65;76.08;101674.81;1476532;88;21705;-82
2021/12/18 06:13:52;;;;;;;5.73;1.73;;;;;;;1.67;76.12;101678.22;1480287;87;21637;-81
2021/12/18 06:16:21;;;;;;;5.03;1.53;;;;;;;1.70;76.35;101686.39;1489256;87;21676;-81
2021/12/18 06:18:50;;;;;;;5.90;1.90;;;;;;;1.68;76.33;101677.76;1488133;88;21804;-81
2021/12/18 06:21:22;;;;;;;7.07;3.17;;;;;;;1.72;76.24;101672.34;1491461;88;21885;-81
2021/12/18 06:23:53;;;;;;;2.72;1.60;;;;;;;1.76;75.83;101666.11;1472947;88;21684;-80
2021/12/18 06:26:23;;;;;;;4.57;1.87;;;;;;;1.83;75.57;101661.95;1481136;88;21490;-80
2021/12/18 06:28:50;;;;;;;2.47;1.50;;;;;;;1.84;75.42;101655.80;1479181;87;21788;-82
2021/12/18 06:31:18;;;;;;;2.80;1.57;;;;;;;1.85;75.43;101657.06;1461337;88;21715;-81
2021/12/18 06:33:45;;;;;;;12.77;2.90;;;;;;;1.86;75.30;101655.30;1481931;88;21727;-80
2021/12/18 06:36:12;;;;;;;4.30;1.57;;;;;;;1.98;75.02;101656.09;1476121;87;21517;-80
2021/12/18 06:38:39;;;;;;;2.60;1.53;;;;;;;1.97;74.96;101654.41;1477056;88;21597;-80
2021/12/18 06:41:06;;;;;;;7.53;2.23;;;;;;;1.98;74.99;101658.70;1475512;88;21810;-81
2021/12/18 06:43:33;;;;;;;4.53;2.10;;;;;;;2.02;74.86;101657.69;1486024;88;22789;-81
2021/12/18 06:46:00;;;;;;;6.00;2.23;;;;;;;2.05;75.22;101665.39;1476011;88;21787;-81
2021/12/18 06:48:27;;;;;;;5.53;2.20;;;;;;;2.07;74.56;101660.09;1480963;88;21737;-82
2021/12/18 06:50:55;;;;;;;5.37;2.20;;;;;;;2.07;74.56;101660.09;1474375;87;21683;-81
2021/12/18 06:53:22;;;;;;;10.67;2.67;;;;;;;2.11;74.70;101670.82;1478369;88;22587;-83
2021/12/18 06:55:49;;;;;;;3.57;1.90;;;;;;;2.17;74.75;101679.70;1487746;87;21708;-82
2021/12/18 06:58:16;;;;;;;2.53;1.63;;;;;;;2.20;74.01;101680.88;1470057;88;21571;-82
2021/12/18 07:00:43;;;;;;;6.90;2.60;;;;;;;2.22;74.02;101695.59;1481044;88;22705;-81
2021/12/18 07:03:12;;;;;;;3.93;1.83;;;;;;;2.30;73.91;101690.48;1491517;88;21681;-81
2021/12/18 07:05:39;;;;;;;7.90;3.00;;;;;;;2.32;73.93;101696.50;1493090;88;22673;-81
2021/12/18 07:08:06;;;;;;;7.83;2.43;;;;;;;2.35;73.79;101711.59;1476476;88;21919;-82
2021/12/18 07:10:35;;;;;;;7.73;2.13;;;;;;;2.35;73.79;101718.13;1480615;88;21740;-82
2021/12/18 07:13:03;;;;;;;4.00;1.50;;;;;;;2.37;73.25;101729.38;1469938;88;22025;-82
2021/12/18 07:15:30;;;;;;;8.93;3.83;;;;;;;2.37;73.25;101729.38;1477891;87;21770;-81
2021/12/18 07:17:57;;;;;;;6.03;2.60;;;;;;;2.38;73.96;101731.52;1493745;88;21933;-82
2021/12/18 07:20:24;;;;;;;5.20;2.03;;;;;;;2.38;73.96;101731.52;1450288;88;23290;-82
2021/12/18 07:22:51;;;;;;;6.70;1.90;;;;;;;2.39;73.38;101717.56;1486996;87;21825;-82
2021/12/18 07:25:19;;;;;;;2.77;1.57;;;;;;;2.39;73.51;101716.26;1472034;88;21964;-82
2021/12/18 07:27:46;;;;;;;7.83;2.23;;;;;;;2.39;73.51;101716.26;1460312;88;23062;-81
2021/12/18 07:30:15;;;;;;;5.27;1.87;;;;;;;2.39;73.47;101712.34;1478790;87;21977;-80
2021/12/18 07:32:43;;;;;;;5.63;1.90;;;;;;;2.43;73.58;101703.45;1476656;87;22991;-80
2021/12/18 07:35:10;;;;;;;7.60;2.67;;;;;;;2.43;73.58;101703.45;1472408;88;21932;-82
2021/12/18 07:37:38;;;;;;;6.63;2.67;;;;;;;2.39;73.67;101696.66;1482411;88;22765;-80
2021/12/18 07:40:10;;;;;;;4.97;2.07;;;;;;;2.60;74.54;101689.20;1475312;88;23114;-81
2021/12/18 07:42:47;;;;;;;5.40;2.83;;;;;;;2.67;73.78;101700.23;1477734;88;22330;-80
2021/12/18 07:45:14;;;;;;;6.87;2.07;;;;;;;2.73;73.51;101703.05;1463612;88;23169;-80
2021/12/18 07:47:41;;;;;;;9.77;3.70;;;;;;;2.80;73.42;101694.42;1459859;89;22296;-79
2021/12/18 07:50:17;;;;;;;7.13;2.50;;;;;;;2.81;72.32;101694.42;1457283;89;22124;-86
2021/12/18 07:52:39;;;;;;;8.50;2.60;;;;;;;2.82;72.19;101695.67;1460043;89;22057;-86
2021/12/18 07:55:07;;;;;;;4.20;2.60;;;;;;;2.67;71.66;101714.16;1455725;89;22153;-87
2021/12/18 07:57:35;;;;;;;4.20;2.07;;;;;;;2.69;72.04;101724.09;1452318;89;23188;-87
2021/12/18 08:00:07;;;;;;;6.13;2.10;;;;;;;2.72;72.01;101730.96;1454870;89;23032;-88
2021/12/18 08:02:35;;;;;;;5.47;2.80;;;;;;;2.74;71.84;101741.38;1476908;89;21907;-84
2021/12/18 08:05:04;;;;;;;4.90;2.67;;;;;;;2.74;71.84;101741.38;1462263;89;23091;-84
2021/12/18 08:07:31;;;;;;;5.73;3.00;;;;;;;2.76;70.67;101758.66;1461829;88;21820;-84
2021/12/18 08:09:58;;;;;;;6.27;2.20;;;;;;;2.88;70.84;101750.32;1464064;89;23269;-84
2021/12/18 08:12:25;;;;;;;4.50;1.73;;;;;;;2.88;70.84;101750.32;1450068;89;22154;-83
2021/12/18 08:14:55;;;;;;;8.40;2.07;;;;;;;3.02;69.29;101764.12;1452452;89;22123;-82
2021/12/18 08:17:24;;;;;;;8.80;2.87;;;;;;;3.02;69.29;101764.12;1443399;89;22139;-84
2021/12/18 08:19:51;;;;;;;6.57;3.13;;;;;;;3.13;70.04;101761.85;1439313;89;22138;-84
2021/12/18 08:22:18;;;;;;;6.07;2.37;;;;;;;3.22;69.61;101767.61;1455296;89;22242;-88
2021/12/18 08:24:46;;;;;;;8.27;3.13;;;;;;;3.27;69.17;101763.02;1464626;89;22079;-86
2021/12/18 08:27:13;;;;;;;9.10;2.37;;;;;;;3.27;68.80;101756.48;1455864;89;22123;-87
2021/12/18 08:29:41;;;;;;;5.03;2.40;;;;;;;3.18;68.08;101770.82;1436173;89;23005;-87
2021/12/18 08:32:08;;;;;;;4.13;2.53;;;;;;;3.22;67.67;101765.83;1436822;91;22234;-86
2021/12/18 08:34:35;;;;;;;5.13;1.90;;;;;;;3.24;66.96;101765.31;1422206;91;22071;-87
2021/12/18 08:37:03;;;;;;;9.57;2.90;;;;;;;3.26;66.03;101773.11;1437006;91;22632;-86
2021/12/18 08:39:30;;;;;;;8.77;2.07;;;;;;;3.25;65.45;101764.42;1429221;89;22084;-84
2021/12/18 08:41:59;;;;;;;4.80;1.70;;;;;;;3.25;65.17;101765.73;1437653;89;22087;-86
2021/12/18 08:44:26;;;;;;;8.10;3.80;;;;;;;3.28;65.49;101764.72;1440287;89;23127;-86
2021/12/18 08:46:53;;;;;;;3.70;1.37;;;;;;;3.21;64.89;101764.61;1455667;89;22124;-87
2021/12/18 08:49:21;;;;;;;6.90;2.20;;;;;;;3.39;65.75;101767.70;1440748;89;22136;-86
2021/12/18 08:51:48;;;;;;;5.87;2.60;;;;;;;3.39;65.75;101767.70;1445552;89;21427;-86
2021/12/18 08:54:15;;;;;;;10.07;3.80;;;;;;;3.47;65.30;101763.45;1460307;89;22293;-85
2021/12/18 08:56:42;;;;;;;3.90;1.73;;;;;;;3.55;64.43;101771.34;1457674;89;22830;-86
2021/12/18 08:59:09;;;;;;;5.07;2.27;;;;;;;3.51;63.75;101767.17;1450799;89;22431;-86
2021/12/18 09:01:37;;;;;;;11.23;4.20;;;;;;;3.55;63.81;101778.34;1449232;89;22228;-86
2021/12/18 09:04:04;;;;;;;5.50;2.13;;;;;;;3.50;63.27;101774.62;1449600;89;22197;-86
2021/12/18 09:06:31;;;;;;;8.83;3.30;;;;;;;3.50;63.57;101779.02;1454725;89;22051;-86
2021/12/18 09:08:58;;;;;;;5.47;1.70;;;;;;;3.38;63.82;101777.80;1456106;89;22081;-86
2021/12/18 09:11:25;;;;;;;2.33;1.03;;;;;;;3.35;63.76;101777.47;1458241;89;23047;-88
2021/12/18 09:13:53;;;;;;;4.53;2.13;;;;;;;3.49;63.89;101771.63;1439255;89;23002;-86
2021/12/18 09:16:20;;;;;;;12.23;3.73;;;;;;;3.63;64.51;101771.47;1451473;89;23679;-86
2021/12/18 09:18:47;;;;;;;5.10;2.53;;;;;;;3.78;64.38;101772.06;1459765;89;22200;-87
2021/12/18 09:21:14;;;;;;;11.47;2.37;;;;;;;3.89;63.20;101770.14;1457406;89;22065;-86
2021/12/18 09:23:42;;;;;;;12.00;3.47;;;;;;;4.00;62.50;101770.14;1449663;89;21375;-87
2021/12/18 09:26:09;;;;;;;3.53;1.57;;;;;;;4.12;63.40;101770.48;1436583;89;21655;-87
2021/12/18 09:28:37;;;;;;;2.93;1.37;;;;;;;4.13;61.26;101764.31;1457157;89;21509;-88
2021/12/18 09:31:04;;;;;;;3.73;1.73;;;;;;;4.19;61.54;101777.12;1451024;89;21472;-88
2021/12/18 09:33:31;;;;;;;4.07;1.90;;;;;;;4.30;61.21;101776.14;1430888;89;21368;-88
2021/12/18 09:35:59;;;;;;;6.37;2.07;;;;;;;4.53;60.97;101782.41;1452004;89;22365;-87
2021/12/18 09:38:26;;;;;;;5.07;1.73;;;;;;;4.64;61.38;101773.18;1452777;89;21368;-88
2021/12/18 09:40:55;;;;;;;6.80;1.87;;;;;;;4.75;62.55;101764.31;1452283;89;21264;-88
2021/12/18 09:43:23;;;;;;;4.47;1.67;;;;;;;4.80;63.92;101763.59;1478704;89;21524;-87
2021/12/18 09:45:50;;;;;;;5.17;1.67;;;;;;;4.84;61.51;101772.19;1406879;88;21493;-87
2021/12/18 09:48:18;;;;;;;7.67;2.43;;;;;;;4.85;63.75;101777.33;1455892;89;21449;-85
2021/12/18 09:50:54;;;;;;;3.40;1.90;;;;;;;4.83;63.10;101767.84;1436827;90;21472;-84
2021/12/18 09:53:15;;;;;;;4.47;1.90;;;;;;;4.86;63.15;101764.63;1428842;90;22307;-84
2021/12/18 09:55:42;;;;;;;4.47;1.90;;;;;;;4.86;63.92;101765.94;1459792;89;21427;-85
2021/12/18 09:58:09;;;;;;;6.87;1.90;;;;;;;4.86;63.45;101760.69;1459466;88;21463;-85
2021/12/18 10:00:36;;;;;;;4.27;1.97;;;;;;;4.72;64.52;101750.89;1411505;91;21464;-86
2021/12/18 10:03:03;;;;;;;9.37;3.47;;;;;;;4.72;63.74;101750.89;1454309;88;21412;-85
2021/12/18 10:05:33;;;;;;;6.67;2.37;;;;;;;4.71;63.55;101756.20;1447823;89;21341;-86
2021/12/18 10:08:15;;;;;;;5.97;2.83;;;;;;;4.85;63.08;101752.88;1432162;89;21391;-85
2021/12/18 10:11:05;;;;;;;;;;;;;;;4.64;62.72;101753.52;1467465;89;21331;-85
2021/12/18 10:13:58;;;;;;;10.60;2.90;;;;;;;4.50;63.36;101758.13;1458107;89;20397;-86
2021/12/18 10:16:27;;;;;;;8.30;3.90;;;;;;;4.49;63.85;101767.77;1451635;88;22336;-85
2021/12/18 10:18:57;;;;;;;9.70;3.20;;;;;;;4.69;64.30;101775.09;1450003;89;21806;-84
2021/12/18 10:21:28;;;;;;;8.23;3.80;;;;;;;4.92;63.39;101763.00;1442102;89;21412;-86
2021/12/18 10:24:00;;;;;;;7.53;3.83;;;;;;;4.97;63.68;101768.83;1446917;89;21324;-86
2021/12/18 10:26:41;;;;;;;9.73;3.62;;;;;;;4.87;62.80;101770.25;1438276;90;22716;-87
2021/12/18 10:29:30;;;;;;;;;;;;;;;4.91;62.50;101766.52;1462077;89;21468;-86
2021/12/18 10:32:14;;;;;;;5.53;2.20;;;;;;;4.82;63.74;101755.66;1458589;89;20344;-86
2021/12/18 10:34:55;;;;;;;8.50;3.40;;;;;;;4.73;63.22;101758.29;1459872;89;21988;-86
2021/12/18 10:37:29;;;;;;;11.88;3.92;;;;;;;4.46;63.47;101758.75;1462086;89;22894;-87
2021/12/18 10:40:11;;;;;;;3.97;2.30;;;;;;;4.33;63.95;101755.02;1433945;90;21535;-86
2021/12/18 10:42:46;;;;;;;4.67;2.80;;;;;;;4.27;63.73;101756.64;1442496;89;21570;-84
2021/12/18 10:45:24;;;;;;;6.97;4.67;;;;;;;4.21;63.08;101749.08;1438156;90;21429;-84
2021/12/18 10:48:03;;;;;;;5.23;2.77;;;;;;;4.14;62.90;101749.81;1459737;89;21622;-84
2021/12/18 10:50:50;;;;;;;3.30;1.57;;;;;;;4.04;63.10;101745.48;1458163;88;21375;-83
2021/12/18 10:53:24;;;;;;;6.20;2.87;;;;;;;4.03;63.03;101746.42;1437909;90;21377;-86
2021/12/18 10:55:57;;;;;;;4.57;2.07;;;;;;;4.13;63.43;101740.73;1436584;90;21464;-86
2021/12/18 10:58:37;;;;;;;4.53;1.80;;;;;;;4.04;62.45;101740.24;1465142;89;21427;-85
2021/12/18 11:01:09;;;;;;;14.33;3.47;;;;;;;4.06;62.76;101741.03;1461452;89;21479;-85
2021/12/18 11:03:51;;;;;;;9.07;3.30;;;;;;;4.10;62.66;101736.48;1459826;88;21648;-88
2021/12/18 11:06:25;;;;;;;13.40;5.50;;;;;;;4.27;63.02;101738.29;1455298;88;22433;-88
2021/12/18 11:09:04;;;;;;;10.37;4.00;;;;;;;4.40;62.72;101727.60;1431369;90;21376;-88
2021/12/18 11:14:13;;;;;;;7.00;3.00;;;;;;;4.52;62.35;101726.98;1438826;91;22366;-88
2021/12/18 11:16:47;;;;;;;4.20;1.97;;;;;;;4.59;62.27;101725.36;1439683;91;21344;-87
2021/12/18 11:19:19;;;;;;;4.60;2.17;;;;;;;4.48;60.31;101718.86;1434074;91;21457;-87
2021/12/18 11:21:54;;;;;;;;;;;;;;;4.37;60.45;101727.72;1435229;91;21361;-89
2021/12/18 11:24:26;;;;;;;5.90;2.17;;;;;;;4.44;61.73;101719.95;1438463;90;20302;-88
2021/12/18 11:27:01;;;;;;;5.47;2.53;;;;;;;4.32;61.39;101725.81;1454287;90;21539;-89
2021/12/18 11:29:40;;;;;;;9.13;2.80;;;;;;;4.31;62.26;101725.41;1421711;92;21524;-88
2021/12/18 11:32:21;;;;;;;5.60;1.90;;;;;;;4.35;61.98;101724.35;1424365;91;21465;-86
2021/12/18 11:34:51;;;;;;;;;;;;;;;4.29;60.83;101724.66;1422021;92;21606;-89
2021/12/18 11:37:20;;;;;;;3.57;1.83;;;;;;;4.31;61.06;101703.70;1426259;91;20958;-88
2021/12/18 11:39:50;;;;;;;8.27;2.17;;;;;;;4.38;61.38;101703.70;1417543;91;21524;-88
2021/12/18 11:42:21;;;;;;;4.35;1.67;;;;;;;4.34;61.39;101716.08;1413934;92;21443;-89
2021/12/18 11:44:57;;;;;;;3.62;2.10;;;;;;;4.29;58.78;101715.48;1395805;92;22590;-90
2021/12/18 11:47:40;;;;;;;6.00;2.43;;;;;;;4.27;58.44;101716.02;1397944;93;21854;-91
2021/12/18 11:50:35;;;;;;;10.70;2.13;;;;;;;4.31;59.45;101717.55;1406336;93;21457;-91
2021/12/18 11:53:13;;;;;;;10.37;2.57;;;;;;;4.27;58.86;101717.32;1419429;91;21422;-91
2021/12/18 11:55:55;;;;;;;8.73;2.30;;;;;;;4.36;59.43;101706.38;1430694;91;21563;-89
2021/12/18 11:58:35;;;;;;;7.27;2.73;;;;;;;4.21;58.96;101711.92;1424049;91;21474;-90
2021/12/18 12:01:06;;;;;;;6.93;3.27;;;;;;;4.27;60.18;101697.67;1422164;91;21459;-88
2021/12/18 12:03:43;;;;;;;7.57;3.60;;;;;;;4.21;59.17;101707.14;1400141;91;21466;-89
2021/12/18 12:06:30;;;;;;;10.63;5.03;;;;;;;4.27;59.82;101696.36;1425392;92;21356;-89
2021/12/18 12:09:26;;;;;;;24.97;8.63;;;;;;;4.27;59.61;101701.59;1424728;92;21326;-92
2021/12/18 12:12:00;;;;;;;52.27;17.27;;;;;;;4.22;59.75;101708.36;1461514;91;21443;-89
2021/12/18 12:14:30;;;;;;;29.87;11.27;;;;;;;4.34;60.18;101702.97;1422209;91;21363;-90
2021/12/18 12:17:03;;;;;;;14.20;4.53;;;;;;;4.44;60.00;101703.38;1423072;92;21496;-90
2021/12/18 12:19:47;;;;;;;8.13;3.00;;;;;;;4.48;59.78;101689.18;1499302;92;22081;-87
2021/12/18 12:22:48;;;;;;;8.67;3.97;;;;;;;4.46;58.63;101687.09;1455882;92;21416;-87
2021/12/18 12:25:17;;;;;;;18.90;6.90;;;;;;;4.48;59.67;101684.78;1453645;91;21503;-88
2021/12/18 12:27:49;;;;;;;97.37;30.07;;;;;;;4.45;59.33;101674.45;1449632;91;21466;-87
2021/12/18 12:30:31;;;;;;;11.53;4.90;;;;;;;4.45;59.72;101658.72;1432323;90;21421;-86
2021/12/18 12:33:05;;;;;;;8.50;3.53;;;;;;;4.40;60.09;101655.52;1431816;91;21534;-87